sensor_id;sensor_type;location;lat;lon;timestamp;temperature;humidity
27848;DHT22;15212;48.830;8.730;2023-04-01T00:01:14;8.00;99.90
27848;DHT22;15212;48.830;8.730;2023-04-01T00:03:43;8.00;99.90
27848;DHT22;15212;48.830;8.730;2023-04-01T00:06:13;8.00;99.90
27848;DHT22;15212;48.830;8.730;2023-04-01T00:08:43;8.00;99.90
27848;DHT22;15212;48.830;8.730;2023-04-01T00:11:13;8.00;99.90
27848;DHT22;15212;48.830;8.730;2023-04-01T00:13:42;8.00;99.90
27848;DHT22;15212;48.830;8.730;2023-04-01T00:16:11;8.00;99.90
27848;DHT22;15212;48.830;8.730;2023-04-01T00:18:40;8.00;99.90
27848;DHT22;15212;48.830;8.730;2023-04-01T00:21:09;8.00;99.90
27848;DHT22;15212;48.830;8.730;2023-04-01T00:23:37;8.00;99.90
27848;DHT22;15212;48.830;8.730;2023-04-01T00:26:05;7.90;99.90
27848;DHT22;15212;48.830;8.730;2023-04-01T00:28:35;7.90;99.90
27848;DHT22;15212;48.830;8.730;2023-04-01T00:31:05;7.90;99.90
27848;DHT22;15212;48.830;8.730;2023-04-01T00:33:34;8.00;99.90
27848;DHT22;15212;48.830;8.730;2023-04-01T00:36:07;8.00;99.90
27848;DHT22;15212;48.830;8.730;2023-04-01T00:38:37;8.00;99.90
27848;DHT22;15212;48.830;8.730;2023-04-01T00:41:07;8.00;99.90
27848;DHT22;15212;48.830;8.730;2023-04-01T00:43:37;8.00;99.90
27848;DHT22;15212;48.830;8.730;2023-04-01T00:46:05;8.00;99.90
27848;DHT22;15212;48.830;8.730;2023-04-01T00:48:39;8.00;99.90
27848;DHT22;15212;48.830;8.730;2023-04-01T00:51:21;8.00;99.90
27848;DHT22;15212;48.830;8.730;2023-04-01T00:53:54;8.00;99.90
27848;DHT22;15212;48.830;8.730;2023-04-01T00:56:32;8.00;99.90
27848;DHT22;15212;48.830;8.730;2023-04-01T00:59:19;8.00;99.90
27848;DHT22;15212;48.830;8.730;2023-04-01T01:01:50;8.00;99.90
27848;DHT22;15212;48.830;8.730;2023-04-01T01:04:30;8.00;99.90
27848;DHT22;15212;48.830;8.730;2023-04-01T01:07:08;8.00;99.90
27848;DHT22;15212;48.830;8.730;2023-04-01T01:15:46;8.00;99.90
27848;DHT22;15212;48.830;8.730;2023-04-01T01:18:35;8.00;99.90
27848;DHT22;15212;48.830;8.730;2023-04-01T01:24:05;8.00;99.90
27848;DHT22;15212;48.830;8.730;2023-04-01T01:29:40;8.00;99.90
27848;DHT22;15212;48.830;8.730;2023-04-01T01:32:17;8.00;99.90
27848;DHT22;15212;48.830;8.730;2023-04-01T01:38:11;8.00;99.90
27848;DHT22;15212;48.830;8.730;2023-04-01T01:40:43;8.00;99.90
27848;DHT22;15212;48.830;8.730;2023-04-01T01:43:17;8.00;99.90
27848;DHT22;15212;48.830;8.730;2023-04-01T01:45:52;8.00;99.90
27848;DHT22;15212;48.830;8.730;2023-04-01T01:48:20;8.00;99.90
27848;DHT22;15212;48.830;8.730;2023-04-01T01:50:51;7.90;99.90
27848;DHT22;15212;48.830;8.730;2023-04-01T01:53:20;7.90;99.90
27848;DHT22;15212;48.830;8.730;2023-04-01T01:55:48;7.90;99.90
27848;DHT22;15212;48.830;8.730;2023-04-01T01:58:22;8.00;99.90
27848;DHT22;15212;48.830;8.730;2023-04-01T02:01:01;7.90;99.90
27848;DHT22;15212;48.830;8.730;2023-04-01T02:03:30;7.90;99.90
27848;DHT22;15212;48.830;8.730;2023-04-01T02:06:02;7.90;99.90
27848;DHT22;15212;48.830;8.730;2023-04-01T02:08:39;8.00;99.90
27848;DHT22;15212;48.830;8.730;2023-04-01T02:11:16;8.00;99.90
27848;DHT22;15212;48.830;8.730;2023-04-01T02:13:52;8.00;99.90
27848;DHT22;15212;48.830;8.730;2023-04-01T02:16:38;8.00;99.90
27848;DHT22;15212;48.830;8.730;2023-04-01T02:19:08;8.00;99.90
27848;DHT22;15212;48.830;8.730;2023-04-01T02:21:39;8.00;99.90
27848;DHT22;15212;48.830;8.730;2023-04-01T02:24:12;7.90;99.90
27848;DHT22;15212;48.830;8.730;2023-04-01T02:26:42;7.80;99.90
27848;DHT22;15212;48.830;8.730;2023-04-01T02:29:12;7.70;99.90
27848;DHT22;15212;48.830;8.730;2023-04-01T02:31:40;7.70;99.90
27848;DHT22;15212;48.830;8.730;2023-04-01T02:34:09;7.60;99.90
27848;DHT22;15212;48.830;8.730;2023-04-01T02:36:38;7.60;99.90
27848;DHT22;15212;48.830;8.730;2023-04-01T02:39:08;7.50;99.90
27848;DHT22;15212;48.830;8.730;2023-04-01T02:41:41;7.40;99.90
27848;DHT22;15212;48.830;8.730;2023-04-01T02:44:13;7.40;99.90
27848;DHT22;15212;48.830;8.730;2023-04-01T02:46:41;7.30;99.90
27848;DHT22;15212;48.830;8.730;2023-04-01T02:49:10;7.30;99.90
27848;DHT22;15212;48.830;8.730;2023-04-01T02:51:38;7.30;99.90
27848;DHT22;15212;48.830;8.730;2023-04-01T02:54:07;7.30;99.90
27848;DHT22;15212;48.830;8.730;2023-04-01T02:56:35;7.20;99.90
27848;DHT22;15212;48.830;8.730;2023-04-01T02:59:03;7.20;99.90
27848;DHT22;15212;48.830;8.730;2023-04-01T03:01:32;7.20;99.90
27848;DHT22;15212;48.830;8.730;2023-04-01T03:04:00;7.20;99.90
27848;DHT22;15212;48.830;8.730;2023-04-01T03:06:29;7.10;99.90
27848;DHT22;15212;48.830;8.730;2023-04-01T03:08:57;7.00;99.90
27848;DHT22;15212;48.830;8.730;2023-04-01T03:11:26;7.00;99.90
27848;DHT22;15212;48.830;8.730;2023-04-01T03:13:54;7.00;99.90
27848;DHT22;15212;48.830;8.730;2023-04-01T03:16:23;7.00;99.90
27848;DHT22;15212;48.830;8.730;2023-04-01T03:18:51;7.00;99.90
27848;DHT22;15212;48.830;8.730;2023-04-01T03:24:11;7.00;99.90
27848;DHT22;15212;48.830;8.730;2023-04-01T03:26:39;7.00;99.90
27848;DHT22;15212;48.830;8.730;2023-04-01T03:29:07;7.00;99.90
27848;DHT22;15212;48.830;8.730;2023-04-01T03:31:36;7.00;99.90
27848;DHT22;15212;48.830;8.730;2023-04-01T03:34:04;7.00;99.90
27848;DHT22;15212;48.830;8.730;2023-04-01T03:36:33;7.00;99.90
27848;DHT22;15212;48.830;8.730;2023-04-01T03:39:01;7.00;99.90
27848;DHT22;15212;48.830;8.730;2023-04-01T03:41:30;7.00;99.90
27848;DHT22;15212;48.830;8.730;2023-04-01T03:43:59;7.00;99.90
27848;DHT22;15212;48.830;8.730;2023-04-01T03:46:27;7.00;99.90
27848;DHT22;15212;48.830;8.730;2023-04-01T03:48:56;7.10;99.90
27848;DHT22;15212;48.830;8.730;2023-04-01T03:51:24;7.00;99.90
27848;DHT22;15212;48.830;8.730;2023-04-01T03:53:52;7.10;99.90
27848;DHT22;15212;48.830;8.730;2023-04-01T03:56:21;7.10;99.90
27848;DHT22;15212;48.830;8.730;2023-04-01T03:58:49;7.20;99.90
27848;DHT22;15212;48.830;8.730;2023-04-01T04:01:19;7.20;99.90
27848;DHT22;15212;48.830;8.730;2023-04-01T04:03:49;7.20;99.90
27848;DHT22;15212;48.830;8.730;2023-04-01T04:06:19;7.30;99.90
27848;DHT22;15212;48.830;8.730;2023-04-01T04:08:48;7.30;99.90
27848;DHT22;15212;48.830;8.730;2023-04-01T04:11:17;7.40;99.90
27848;DHT22;15212;48.830;8.730;2023-04-01T04:13:46;7.40;99.90
27848;DHT22;15212;48.830;8.730;2023-04-01T04:16:16;7.40;99.90
27848;DHT22;15212;48.830;8.730;2023-04-01T04:18:44;7.40;99.90
27848;DHT22;15212;48.830;8.730;2023-04-01T04:21:14;7.40;99.90
27848;DHT22;15212;48.830;8.730;2023-04-01T04:23:43;7.50;99.90
27848;DHT22;15212;48.830;8.730;2023-04-01T04:26:13;7.50;99.90
27848;DHT22;15212;48.830;8.730;2023-04-01T04:28:42;7.40;99.90
27848;DHT22;15212;48.830;8.730;2023-04-01T04:31:11;7.40;99.90
27848;DHT22;15212;48.830;8.730;2023-04-01T04:33:39;7.50;99.90
27848;DHT22;15212;48.830;8.730;2023-04-01T04:36:08;7.40;99.90
27848;DHT22;15212;48.830;8.730;2023-04-01T04:38:36;7.50;99.90
27848;DHT22;15212;48.830;8.730;2023-04-01T04:41:09;7.40;99.90
27848;DHT22;15212;48.830;8.730;2023-04-01T04:43:40;7.50;99.90
27848;DHT22;15212;48.830;8.730;2023-04-01T04:46:10;7.40;99.90
27848;DHT22;15212;48.830;8.730;2023-04-01T04:48:38;7.40;99.90
27848;DHT22;15212;48.830;8.730;2023-04-01T04:51:06;7.40;99.90
27848;DHT22;15212;48.830;8.730;2023-04-01T04:53:35;7.40;99.90
27848;DHT22;15212;48.830;8.730;2023-04-01T04:56:03;7.40;99.90
27848;DHT22;15212;48.830;8.730;2023-04-01T04:58:32;7.30;99.90
27848;DHT22;15212;48.830;8.730;2023-04-01T05:01:08;7.30;99.90
27848;DHT22;15212;48.830;8.730;2023-04-01T05:03:38;7.30;99.90
27848;DHT22;15212;48.830;8.730;2023-04-01T05:06:08;7.30;99.90
27848;DHT22;15212;48.830;8.730;2023-04-01T05:08:37;7.30;99.90
27848;DHT22;15212;48.830;8.730;2023-04-01T05:11:13;7.20;99.90
27848;DHT22;15212;48.830;8.730;2023-04-01T05:13:39;7.20;99.90
27848;DHT22;15212;48.830;8.730;2023-04-01T05:16:14;7.20;99.90
27848;DHT22;15212;48.830;8.730;2023-04-01T05:18:39;7.20;99.90
27848;DHT22;15212;48.830;8.730;2023-04-01T05:21:10;7.20;99.90
27848;DHT22;15212;48.830;8.730;2023-04-01T05:23:40;7.30;99.90
27848;DHT22;15212;48.830;8.730;2023-04-01T05:26:11;7.30;99.90
27848;DHT22;15212;48.830;8.730;2023-04-01T05:28:41;7.30;99.90
27848;DHT22;15212;48.830;8.730;2023-04-01T05:31:10;7.30;99.90
27848;DHT22;15212;48.830;8.730;2023-04-01T05:33:38;7.30;99.90
27848;DHT22;15212;48.830;8.730;2023-04-01T05:36:14;7.30;99.90
27848;DHT22;15212;48.830;8.730;2023-04-01T05:38:40;7.40;99.90
27848;DHT22;15212;48.830;8.730;2023-04-01T05:41:09;7.40;99.90
27848;DHT22;15212;48.830;8.730;2023-04-01T05:43:38;7.40;99.90
27848;DHT22;15212;48.830;8.730;2023-04-01T05:46:07;7.50;99.90
27848;DHT22;15212;48.830;8.730;2023-04-01T05:48:36;7.50;99.90
27848;DHT22;15212;48.830;8.730;2023-04-01T05:51:05;7.50;99.90
27848;DHT22;15212;48.830;8.730;2023-04-01T05:53:33;7.50;99.90
27848;DHT22;15212;48.830;8.730;2023-04-01T05:56:05;7.60;99.90
27848;DHT22;15212;48.830;8.730;2023-04-01T05:58:36;7.60;99.90
27848;DHT22;15212;48.830;8.730;2023-04-01T06:01:11;7.50;99.90
27848;DHT22;15212;48.830;8.730;2023-04-01T06:03:37;7.60;99.90
27848;DHT22;15212;48.830;8.730;2023-04-01T06:06:14;7.50;99.90
27848;DHT22;15212;48.830;8.730;2023-04-01T06:08:45;7.50;99.90
27848;DHT22;15212;48.830;8.730;2023-04-01T06:11:35;7.50;99.90
27848;DHT22;15212;48.830;8.730;2023-04-01T06:14:23;7.50;99.90
27848;DHT22;15212;48.830;8.730;2023-04-01T06:17:20;7.40;99.90
27848;DHT22;15212;48.830;8.730;2023-04-01T06:20:52;7.40;99.90
27848;DHT22;15212;48.830;8.730;2023-04-01T06:28:38;7.30;99.90
27848;DHT22;15212;48.830;8.730;2023-04-01T06:40:41;7.10;99.90
27848;DHT22;15212;48.830;8.730;2023-04-01T06:43:34;7.10;99.90
27848;DHT22;15212;48.830;8.730;2023-04-01T06:46:36;7.10;99.90
27848;DHT22;15212;48.830;8.730;2023-04-01T06:52:42;7.10;99.90
27848;DHT22;15212;48.830;8.730;2023-04-01T06:58:51;7.00;99.90
27848;DHT22;15212;48.830;8.730;2023-04-01T07:01:00;7.10;99.90
27848;DHT22;15212;48.830;8.730;2023-04-01T07:03:51;7.10;99.90
27848;DHT22;15212;48.830;8.730;2023-04-01T07:06:35;7.10;99.90
27848;DHT22;15212;48.830;8.730;2023-04-01T07:09:16;7.10;99.90
27848;DHT22;15212;48.830;8.730;2023-04-01T07:11:42;7.10;99.90
27848;DHT22;15212;48.830;8.730;2023-04-01T07:14:17;7.10;99.90
27848;DHT22;15212;48.830;8.730;2023-04-01T07:16:58;7.10;99.90
27848;DHT22;15212;48.830;8.730;2023-04-01T07:20:02;7.10;99.90
27848;DHT22;15212;48.830;8.730;2023-04-01T07:22:52;7.10;99.90
27848;DHT22;15212;48.830;8.730;2023-04-01T07:25:35;7.10;99.90
27848;DHT22;15212;48.830;8.730;2023-04-01T07:28:15;7.20;99.90
27848;DHT22;15212;48.830;8.730;2023-04-01T07:33:59;7.30;99.90
27848;DHT22;15212;48.830;8.730;2023-04-01T07:36:59;7.40;99.90
27848;DHT22;15212;48.830;8.730;2023-04-01T07:42:47;7.50;99.90
27848;DHT22;15212;48.830;8.730;2023-04-01T07:45:36;7.50;99.90
27848;DHT22;15212;48.830;8.730;2023-04-01T07:48:40;7.50;99.90
27848;DHT22;15212;48.830;8.730;2023-04-01T07:51:52;7.50;99.90
27848;DHT22;15212;48.830;8.730;2023-04-01T07:54:45;7.50;99.90
27848;DHT22;15212;48.830;8.730;2023-04-01T07:57:19;7.50;99.90
27848;DHT22;15212;48.830;8.730;2023-04-01T08:00:09;7.40;99.90
27848;DHT22;15212;48.830;8.730;2023-04-01T08:03:02;7.40;99.90
27848;DHT22;15212;48.830;8.730;2023-04-01T08:05:47;7.40;99.90
27848;DHT22;15212;48.830;8.730;2023-04-01T08:08:46;7.50;99.90
27848;DHT22;15212;48.830;8.730;2023-04-01T08:11:25;7.50;99.90
27848;DHT22;15212;48.830;8.730;2023-04-01T08:14:03;7.50;99.90
27848;DHT22;15212;48.830;8.730;2023-04-01T08:16:46;7.50;99.90
27848;DHT22;15212;48.830;8.730;2023-04-01T08:19:47;7.50;99.90
27848;DHT22;15212;48.830;8.730;2023-04-01T08:22:39;7.40;99.90
27848;DHT22;15212;48.830;8.730;2023-04-01T08:25:05;7.30;99.90
27848;DHT22;15212;48.830;8.730;2023-04-01T08:27:38;7.20;99.90
27848;DHT22;15212;48.830;8.730;2023-04-01T08:30:33;7.20;99.90
27848;DHT22;15212;48.830;8.730;2023-04-01T08:33:11;7.20;99.90
27848;DHT22;15212;48.830;8.730;2023-04-01T08:35:53;7.20;99.90
27848;DHT22;15212;48.830;8.730;2023-04-01T08:38:41;7.20;99.90
27848;DHT22;15212;48.830;8.730;2023-04-01T08:44:16;7.20;99.90
27848;DHT22;15212;48.830;8.730;2023-04-01T08:47:05;7.30;99.90
27848;DHT22;15212;48.830;8.730;2023-04-01T08:50:01;7.30;99.90
27848;DHT22;15212;48.830;8.730;2023-04-01T08:52:35;7.40;99.90
27848;DHT22;15212;48.830;8.730;2023-04-01T08:55:30;7.50;99.90
27848;DHT22;15212;48.830;8.730;2023-04-01T09:01:14;7.70;99.90
27848;DHT22;15212;48.830;8.730;2023-04-01T09:12:51;7.90;99.90
27848;DHT22;15212;48.830;8.730;2023-04-01T09:15:50;7.90;99.90
27848;DHT22;15212;48.830;8.730;2023-04-01T09:18:46;7.90;99.90
27848;DHT22;15212;48.830;8.730;2023-04-01T09:21:31;7.90;99.90
27848;DHT22;15212;48.830;8.730;2023-04-01T09:27:25;7.90;99.90
27848;DHT22;15212;48.830;8.730;2023-04-01T09:39:42;8.00;99.90
27848;DHT22;15212;48.830;8.730;2023-04-01T09:45:07;8.10;99.90
27848;DHT22;15212;48.830;8.730;2023-04-01T09:47:48;8.10;99.90
27848;DHT22;15212;48.830;8.730;2023-04-01T09:50:41;8.20;99.90
27848;DHT22;15212;48.830;8.730;2023-04-01T09:53:36;8.20;99.90
27848;DHT22;15212;48.830;8.730;2023-04-01T09:56:23;8.40;99.90
27848;DHT22;15212;48.830;8.730;2023-04-01T09:59:08;8.70;99.90
27848;DHT22;15212;48.830;8.730;2023-04-01T10:14:16;9.00;99.90
27848;DHT22;15212;48.830;8.730;2023-04-01T10:17:08;9.00;99.90
27848;DHT22;15212;48.830;8.730;2023-04-01T10:19:45;8.90;99.90
27848;DHT22;15212;48.830;8.730;2023-04-01T10:22:34;8.90;99.90
27848;DHT22;15212;48.830;8.730;2023-04-01T10:31:20;8.90;99.90
27848;DHT22;15212;48.830;8.730;2023-04-01T10:37:07;8.90;99.90
27848;DHT22;15212;48.830;8.730;2023-04-01T10:42:48;8.70;99.90
27848;DHT22;15212;48.830;8.730;2023-04-01T10:48:50;9.00;99.90
27848;DHT22;15212;48.830;8.730;2023-04-01T10:51:56;9.30;99.90
27848;DHT22;15212;48.830;8.730;2023-04-01T10:57:53;9.60;99.90
27848;DHT22;15212;48.830;8.730;2023-04-01T11:00:57;9.60;99.90
27848;DHT22;15212;48.830;8.730;2023-04-01T11:03:45;9.60;99.90
27848;DHT22;15212;48.830;8.730;2023-04-01T11:16:03;9.70;99.90
27848;DHT22;15212;48.830;8.730;2023-04-01T11:24:57;9.40;99.90
27848;DHT22;15212;48.830;8.730;2023-04-01T11:27:43;9.10;99.90
27848;DHT22;15212;48.830;8.730;2023-04-01T11:30:40;8.90;99.90
27848;DHT22;15212;48.830;8.730;2023-04-01T11:33:18;8.90;99.90
27848;DHT22;15212;48.830;8.730;2023-04-01T11:36:28;8.80;99.90
27848;DHT22;15212;48.830;8.730;2023-04-01T11:39:24;8.90;99.90
27848;DHT22;15212;48.830;8.730;2023-04-01T11:44:57;8.80;99.90
27848;DHT22;15212;48.830;8.730;2023-04-01T11:47:28;8.80;99.90
27848;DHT22;15212;48.830;8.730;2023-04-01T11:55:55;8.70;99.90
27848;DHT22;15212;48.830;8.730;2023-04-01T11:58:57;8.80;99.90
27848;DHT22;15212;48.830;8.730;2023-04-01T12:10:46;9.00;99.90
27848;DHT22;15212;48.830;8.730;2023-04-01T12:13:27;9.20;99.90
27848;DHT22;15212;48.830;8.730;2023-04-01T12:19:12;9.40;99.90
27848;DHT22;15212;48.830;8.730;2023-04-01T12:22:06;9.40;99.90
27848;DHT22;15212;48.830;8.730;2023-04-01T12:24:46;9.40;99.90
27848;DHT22;15212;48.830;8.730;2023-04-01T12:30:26;9.20;99.90
27848;DHT22;15212;48.830;8.730;2023-04-01T12:33:28;9.20;99.90
27848;DHT22;15212;48.830;8.730;2023-04-01T12:42:24;9.20;99.90
27848;DHT22;15212;48.830;8.730;2023-04-01T12:48:06;9.00;99.90
27848;DHT22;15212;48.830;8.730;2023-04-01T12:50:53;8.90;99.90
27848;DHT22;15212;48.830;8.730;2023-04-01T12:56:47;8.90;99.90
27848;DHT22;15212;48.830;8.730;2023-04-01T13:02:49;9.00;99.90
27848;DHT22;15212;48.830;8.730;2023-04-01T13:08:23;9.10;99.90
27848;DHT22;15212;48.830;8.730;2023-04-01T13:11:05;9.10;99.90
27848;DHT22;15212;48.830;8.730;2023-04-01T13:14:04;9.10;99.90
27848;DHT22;15212;48.830;8.730;2023-04-01T13:16:39;9.10;99.90
27848;DHT22;15212;48.830;8.730;2023-04-01T13:19:30;9.10;99.90
27848;DHT22;15212;48.830;8.730;2023-04-01T13:25:03;9.10;99.90
27848;DHT22;15212;48.830;8.730;2023-04-01T13:27:46;9.10;99.90
27848;DHT22;15212;48.830;8.730;2023-04-01T13:41:33;8.80;99.90
27848;DHT22;15212;48.830;8.730;2023-04-01T13:44:14;8.90;99.90
27848;DHT22;15212;48.830;8.730;2023-04-01T14:02:14;8.30;99.90
27848;DHT22;15212;48.830;8.730;2023-04-01T14:11:10;8.30;99.90
27848;DHT22;15212;48.830;8.730;2023-04-01T14:13:56;8.40;99.90
27848;DHT22;15212;48.830;8.730;2023-04-01T14:44:16;8.70;99.90
27848;DHT22;15212;48.830;8.730;2023-04-01T14:47:22;8.70;99.90
27848;DHT22;15212;48.830;8.730;2023-04-01T14:52:48;8.70;99.90
27848;DHT22;15212;48.830;8.730;2023-04-01T14:55:29;8.70;99.90
27848;DHT22;15212;48.830;8.730;2023-04-01T14:58:16;8.70;99.90
27848;DHT22;15212;48.830;8.730;2023-04-01T15:06:39;8.60;99.90
27848;DHT22;15212;48.830;8.730;2023-04-01T15:15:16;8.50;99.90
27848;DHT22;15212;48.830;8.730;2023-04-01T15:20:50;8.50;99.90
27848;DHT22;15212;48.830;8.730;2023-04-01T15:23:46;8.50;99.90
27848;DHT22;15212;48.830;8.730;2023-04-01T15:26:33;8.50;99.90
27848;DHT22;15212;48.830;8.730;2023-04-01T15:29:32;8.60;99.90
27848;DHT22;15212;48.830;8.730;2023-04-01T15:32:21;8.60;99.90
27848;DHT22;15212;48.830;8.730;2023-04-01T15:35:30;8.60;99.90
27848;DHT22;15212;48.830;8.730;2023-04-01T15:41:22;8.60;99.90
27848;DHT22;15212;48.830;8.730;2023-04-01T15:43:53;8.60;99.90
27848;DHT22;15212;48.830;8.730;2023-04-01T15:46:43;8.50;99.90
27848;DHT22;15212;48.830;8.730;2023-04-01T15:52:42;8.50;99.90
27848;DHT22;15212;48.830;8.730;2023-04-01T15:55:39;8.50;99.90
27848;DHT22;15212;48.830;8.730;2023-04-01T16:01:54;8.50;99.90
27848;DHT22;15212;48.830;8.730;2023-04-01T16:04:46;8.40;99.90
27848;DHT22;15212;48.830;8.730;2023-04-01T16:07:42;8.40;99.90
27848;DHT22;15212;48.830;8.730;2023-04-01T16:10:38;8.40;99.90
27848;DHT22;15212;48.830;8.730;2023-04-01T16:16:14;8.40;99.90
27848;DHT22;15212;48.830;8.730;2023-04-01T16:19:11;8.40;99.90
27848;DHT22;15212;48.830;8.730;2023-04-01T16:21:44;8.40;99.90
27848;DHT22;15212;48.830;8.730;2023-04-01T16:24:23;8.40;99.90
27848;DHT22;15212;48.830;8.730;2023-04-01T16:27:04;8.40;99.90
27848;DHT22;15212;48.830;8.730;2023-04-01T16:35:58;8.30;99.90
27848;DHT22;15212;48.830;8.730;2023-04-01T16:38:38;8.40;99.90
27848;DHT22;15212;48.830;8.730;2023-04-01T16:41:33;8.40;99.90
27848;DHT22;15212;48.830;8.730;2023-04-01T16:44:14;8.40;99.90
27848;DHT22;15212;48.830;8.730;2023-04-01T16:47:16;8.40;99.90
27848;DHT22;15212;48.830;8.730;2023-04-01T16:49:46;8.40;99.90
27848;DHT22;15212;48.830;8.730;2023-04-01T16:52:30;8.40;99.90
27848;DHT22;15212;48.830;8.730;2023-04-01T16:55:11;8.40;99.90
27848;DHT22;15212;48.830;8.730;2023-04-01T17:00:30;8.40;99.90
27848;DHT22;15212;48.830;8.730;2023-04-01T17:03:11;8.40;99.90
27848;DHT22;15212;48.830;8.730;2023-04-01T17:11:27;8.40;99.90
27848;DHT22;15212;48.830;8.730;2023-04-01T17:17:33;8.30;99.90
27848;DHT22;15212;48.830;8.730;2023-04-01T17:20:33;8.30;99.90
27848;DHT22;15212;48.830;8.730;2023-04-01T17:29:13;8.20;99.90
27848;DHT22;15212;48.830;8.730;2023-04-01T17:34:55;8.00;99.90
27848;DHT22;15212;48.830;8.730;2023-04-01T17:37:28;7.90;99.90
27848;DHT22;15212;48.830;8.730;2023-04-01T17:49:35;7.40;99.90
27848;DHT22;15212;48.830;8.730;2023-04-01T17:58:21;7.30;99.90
27848;DHT22;15212;48.830;8.730;2023-04-01T18:04:07;7.30;99.90
27848;DHT22;15212;48.830;8.730;2023-04-01T18:09:48;7.40;99.90
27848;DHT22;15212;48.830;8.730;2023-04-01T18:15:46;7.30;99.90
27848;DHT22;15212;48.830;8.730;2023-04-01T18:17:59;7.30;99.90
27848;DHT22;15212;48.830;8.730;2023-04-01T18:20:53;7.30;99.90
27848;DHT22;15212;48.830;8.730;2023-04-01T18:23:31;7.20;99.90
27848;DHT22;15212;48.830;8.730;2023-04-01T18:26:31;7.10;99.90
27848;DHT22;15212;48.830;8.730;2023-04-01T18:32:10;7.10;99.90
27848;DHT22;15212;48.830;8.730;2023-04-01T18:38:16;7.10;99.90
27848;DHT22;15212;48.830;8.730;2023-04-01T18:44:28;6.90;99.90
27848;DHT22;15212;48.830;8.730;2023-04-01T18:47:43;6.90;99.90
27848;DHT22;15212;48.830;8.730;2023-04-01T18:50:22;6.90;99.90
27848;DHT22;15212;48.830;8.730;2023-04-01T18:53:34;6.90;99.90
27848;DHT22;15212;48.830;8.730;2023-04-01T18:56:25;6.90;99.90
27848;DHT22;15212;48.830;8.730;2023-04-01T18:59:25;6.90;99.90
27848;DHT22;15212;48.830;8.730;2023-04-01T19:02:33;7.00;99.90
27848;DHT22;15212;48.830;8.730;2023-04-01T19:05:19;7.00;99.90
27848;DHT22;15212;48.830;8.730;2023-04-01T19:07:54;7.00;99.90
27848;DHT22;15212;48.830;8.730;2023-04-01T19:16:40;7.10;99.90
27848;DHT22;15212;48.830;8.730;2023-04-01T19:19:34;7.10;99.90
27848;DHT22;15212;48.830;8.730;2023-04-01T19:39:48;7.20;99.90
27848;DHT22;15212;48.830;8.730;2023-04-01T19:43:02;7.20;99.90
27848;DHT22;15212;48.830;8.730;2023-04-01T19:51:41;7.30;99.90
27848;DHT22;15212;48.830;8.730;2023-04-01T20:00:34;7.40;99.90
27848;DHT22;15212;48.830;8.730;2023-04-01T20:03:33;7.40;99.90
27848;DHT22;15212;48.830;8.730;2023-04-01T20:06:37;7.40;99.90
27848;DHT22;15212;48.830;8.730;2023-04-01T20:12:17;7.40;99.90
27848;DHT22;15212;48.830;8.730;2023-04-01T20:15:04;7.40;99.90
27848;DHT22;15212;48.830;8.730;2023-04-01T20:17:48;7.40;99.90
27848;DHT22;15212;48.830;8.730;2023-04-01T20:20:21;7.30;99.90
27848;DHT22;15212;48.830;8.730;2023-04-01T20:26:01;7.30;99.90
27848;DHT22;15212;48.830;8.730;2023-04-01T20:28:41;7.30;99.90
27848;DHT22;15212;48.830;8.730;2023-04-01T20:31:21;7.20;99.90
27848;DHT22;15212;48.830;8.730;2023-04-01T20:34:12;7.20;99.90
27848;DHT22;15212;48.830;8.730;2023-04-01T20:36:54;7.20;99.90
27848;DHT22;15212;48.830;8.730;2023-04-01T20:40:14;7.20;99.90
27848;DHT22;15212;48.830;8.730;2023-04-01T20:43:04;7.20;99.90
27848;DHT22;15212;48.830;8.730;2023-04-01T20:51:26;7.20;99.90
27848;DHT22;15212;48.830;8.730;2023-04-01T20:54:33;7.10;99.90
27848;DHT22;15212;48.830;8.730;2023-04-01T20:57:11;7.10;99.90
27848;DHT22;15212;48.830;8.730;2023-04-01T20:59:56;7.10;99.90
27848;DHT22;15212;48.830;8.730;2023-04-01T21:02:51;7.10;99.90
27848;DHT22;15212;48.830;8.730;2023-04-01T21:08:08;7.10;99.90
27848;DHT22;15212;48.830;8.730;2023-04-01T21:10:44;7.00;99.90
27848;DHT22;15212;48.830;8.730;2023-04-01T21:13:30;7.00;99.90
27848;DHT22;15212;48.830;8.730;2023-04-01T21:16:33;7.00;99.90
27848;DHT22;15212;48.830;8.730;2023-04-01T21:22:45;6.90;99.90
27848;DHT22;15212;48.830;8.730;2023-04-01T21:25:27;6.90;99.90
27848;DHT22;15212;48.830;8.730;2023-04-01T21:28:29;6.90;99.90
27848;DHT22;15212;48.830;8.730;2023-04-01T21:31:22;6.90;99.90
27848;DHT22;15212;48.830;8.730;2023-04-01T21:34:05;6.90;99.90
27848;DHT22;15212;48.830;8.730;2023-04-01T21:40:00;7.00;99.90
27848;DHT22;15212;48.830;8.730;2023-04-01T21:46:04;7.00;99.90
27848;DHT22;15212;48.830;8.730;2023-04-01T21:54:53;7.10;99.90
27848;DHT22;15212;48.830;8.730;2023-04-01T22:06:52;7.10;99.90
27848;DHT22;15212;48.830;8.730;2023-04-01T22:12:15;7.10;99.90
27848;DHT22;15212;48.830;8.730;2023-04-01T22:15:16;7.10;99.90
27848;DHT22;15212;48.830;8.730;2023-04-01T22:18:06;7.20;99.90
27848;DHT22;15212;48.830;8.730;2023-04-01T22:27:03;7.10;99.90
27848;DHT22;15212;48.830;8.730;2023-04-01T22:32:34;7.10;99.90
27848;DHT22;15212;48.830;8.730;2023-04-01T22:35:27;7.10;99.90
27848;DHT22;15212;48.830;8.730;2023-04-01T22:38:30;7.10;99.90
27848;DHT22;15212;48.830;8.730;2023-04-01T22:41:18;7.10;99.90
27848;DHT22;15212;48.830;8.730;2023-04-01T22:43:47;7.10;99.90
27848;DHT22;15212;48.830;8.730;2023-04-01T22:49:07;7.10;99.90
27848;DHT22;15212;48.830;8.730;2023-04-01T22:52:11;7.10;99.90
27848;DHT22;15212;48.830;8.730;2023-04-01T22:54:52;7.10;99.90
27848;DHT22;15212;48.830;8.730;2023-04-01T22:57:36;7.10;99.90
27848;DHT22;15212;48.830;8.730;2023-04-01T23:00:24;7.10;99.90
27848;DHT22;15212;48.830;8.730;2023-04-01T23:05:57;7.10;99.90
27848;DHT22;15212;48.830;8.730;2023-04-01T23:11:33;7.10;99.90
27848;DHT22;15212;48.830;8.730;2023-04-01T23:17:27;7.10;99.90
27848;DHT22;15212;48.830;8.730;2023-04-01T23:20:17;7.10;99.90
27848;DHT22;15212;48.830;8.730;2023-04-01T23:23:09;7.10;99.90
27848;DHT22;15212;48.830;8.730;2023-04-01T23:31:30;7.20;99.90
27848;DHT22;15212;48.830;8.730;2023-04-01T23:36:44;7.20;99.90
27848;DHT22;15212;48.830;8.730;2023-04-01T23:39:32;7.20;99.90
27848;DHT22;15212;48.830;8.730;2023-04-01T23:42:07;7.20;99.90
27848;DHT22;15212;48.830;8.730;2023-04-01T23:44:41;7.20;99.90
27848;DHT22;15212;48.830;8.730;2023-04-01T23:47:18;7.20;99.90
27848;DHT22;15212;48.830;8.730;2023-04-01T23:52:46;7.20;99.90
27848;DHT22;15212;48.830;8.730;2023-04-01T23:55:21;7.20;99.90
